Time;durP1;ratioP1;P1;durP2;ratioP2;P2;SDS_P1;SDS_P2;PMS_P1;PMS_P2;Temp;Humidity;BMP_temperature;BMP_pressure;BME280_temperature;BME280_humidity;BME280_pressure;Samples;Min_cycle;Max_cycle;Signal;HPM_P1;HPM_P2
2023/08/18 00:01:32;;;;;;;6.75;4.13;;;19.20;99.90;;;19.13;100.00;97288.38;5053483;28;20052;-43
2023/08/18 00:03:58;;;;;;;4.95;4.38;;;19.20;99.90;;;18.99;100.00;97279.56;5054330;28;20507;-41
2023/08/18 00:06:24;;;;;;;5.75;4.38;;;19.20;99.90;;;19.05;100.00;97283.59;5050618;28;20082;-40
2023/08/18 00:08:50;;;;;;;5.35;4.32;;;19.10;99.90;;;19.03;100.00;97285.53;5046567;28;20033;-39
2023/08/18 00:11:15;;;;;;;4.72;4.07;;;19.10;99.90;;;19.00;100.00;97289.28;5044328;28;20556;-41
2023/08/18 00:13:41;;;;;;;7.05;4.32;;;19.10;99.90;;;18.95;100.00;97282.56;5046071;28;20036;-41
2023/08/18 00:16:07;;;;;;;4.65;4.07;;;19.00;99.90;;;18.88;100.00;97288.34;5039380;28;20115;-40
2023/08/18 00:18:32;;;;;;;4.75;4.07;;;19.00;99.90;;;18.82;100.00;97285.28;5044977;28;20021;-40
2023/08/18 00:20:58;;;;;;;4.53;3.85;;;18.90;99.90;;;18.71;100.00;97275.31;5045938;28;20029;-40
2023/08/18 00:23:24;;;;;;;4.68;3.67;;;18.90;99.90;;;18.76;100.00;97283.03;5042503;28;20033;-40
2023/08/18 00:25:50;;;;;;;4.18;3.38;;;18.80;99.90;;;18.72;100.00;97284.19;5039907;28;20082;-40
2023/08/18 00:28:15;;;;;;;6.43;3.63;;;18.80;99.90;;;18.68;100.00;97279.06;5034632;28;20025;-39
2023/08/18 00:30:41;;;;;;;6.28;3.50;;;18.80;99.90;;;18.66;100.00;97282.81;5034151;28;20029;-40
2023/08/18 00:33:07;;;;;;;6.10;3.42;;;18.70;99.90;;;18.61;100.00;97279.59;5036723;28;20036;-40
2023/08/18 00:35:34;;;;;;;4.63;3.22;;;18.60;99.90;;;18.46;100.00;97262.88;5034957;28;20033;-40
2023/08/18 00:37:59;;;;;;;4.13;3.50;;;18.60;99.90;;;18.50;100.00;97278.56;5037708;28;20029;-40
2023/08/18 00:40:25;;;;;;;5.43;3.42;;;18.60;99.90;;;18.45;100.00;97275.38;5035238;28;20032;-40
2023/08/18 00:42:51;;;;;;;5.20;3.78;;;18.50;99.90;;;18.38;100.00;97271.44;5033092;28;20044;-40
2023/08/18 00:45:17;;;;;;;7.97;3.90;;;18.50;99.90;;;18.35;100.00;97268.97;5039857;28;20052;-40
2023/08/18 00:47:44;;;;;;;7.20;3.50;;;18.40;99.90;;;18.30;100.00;97280.00;5040220;28;20426;-41
2023/08/18 00:50:13;;;;;;;5.72;3.30;;;18.40;99.90;;;18.26;100.00;97274.97;5036039;28;20083;-40
2023/08/18 00:52:43;;;;;;;7.30;3.33;;;18.30;99.90;;;18.20;100.00;97267.41;5038547;28;20029;-39
2023/08/18 00:55:10;;;;;;;4.85;3.33;;;18.20;99.90;;;18.10;100.00;97260.00;5040770;28;20084;-39
2023/08/18 00:57:37;;;;;;;4.55;3.55;;;18.20;99.90;;;18.11;100.00;97267.06;5043794;28;20041;-40
2023/08/18 01:00:03;;;;;;;4.88;3.30;;;18.20;99.90;;;18.09;100.00;97265.47;5043534;28;20029;-40
2023/08/18 01:02:29;;;;;;;5.22;3.60;;;18.20;99.90;;;18.06;100.00;97263.00;5038976;28;20020;-39
2023/08/18 01:05:00;;;;;;;5.65;3.78;;;18.20;99.90;;;18.03;100.00;97261.41;5041976;28;20025;-41
2023/08/18 01:07:26;;;;;;;3.72;3.33;;;18.10;99.90;;;18.03;100.00;97263.22;5038065;28;20032;-41
2023/08/18 01:09:53;;;;;;;4.55;3.58;;;18.20;99.90;;;18.03;100.00;97268.56;5042318;28;20033;-40
2023/08/18 01:12:51;;;;;;;4.85;3.10;;;18.10;99.90;;;18.02;100.00;97265.03;5037533;28;20453;-40
2023/08/18 01:15:23;;;;;;;3.78;3.28;;;18.10;99.90;;;18.03;100.00;97260.53;5042082;28;20028;-40
2023/08/18 01:17:55;;;;;;;5.97;3.58;;;18.10;99.90;;;18.04;100.00;97262.28;5042033;28;20520;-40
2023/08/18 01:20:22;;;;;;;3.43;3.13;;;18.10;99.90;;;18.03;100.00;97258.72;5040999;28;20163;-40
2023/08/18 01:22:59;;;;;;;5.60;3.55;;;18.10;99.90;;;18.03;100.00;97264.06;5037571;28;20029;-41
2023/08/18 01:25:26;;;;;;;5.38;3.28;;;18.10;99.90;;;18.00;100.00;97255.41;5036603;28;20115;-40
2023/08/18 01:27:54;;;;;;;5.57;3.33;;;18.10;99.90;;;17.87;100.00;97247.41;5037766;28;20084;-39
2023/08/18 01:30:20;;;;;;;5.07;3.30;;;18.10;99.90;;;17.97;100.00;97261.84;5032945;28;20040;-39
2023/08/18 01:33:15;;;;;;;5.30;3.55;;;18.00;99.90;;;17.97;100.00;97258.31;5033765;28;20428;-40
2023/08/18 01:35:43;;;;;;;5.95;3.85;;;18.00;99.90;;;17.95;100.00;97263.75;5037384;28;20472;-40
2023/08/18 01:38:11;;;;;;;4.90;3.60;;;18.00;99.90;;;17.93;100.00;97263.00;5033795;28;20035;-39
2023/08/18 01:40:39;;;;;;;3.95;3.55;;;18.00;99.90;;;17.90;100.00;97260.53;5035837;28;20048;-40
2023/08/18 01:43:04;;;;;;;4.97;3.80;;;18.00;99.90;;;17.89;100.00;97249.03;5038594;28;20033;-40
2023/08/18 01:45:31;;;;;;;5.38;3.75;;;18.00;99.90;;;17.87;100.00;97258.06;5035079;28;20031;-41
2023/08/18 01:47:57;;;;;;;4.82;3.75;;;17.90;99.90;;;17.85;100.00;97257.31;5041189;28;20033;-40
2023/08/18 01:50:23;;;;;;;5.72;3.83;;;17.90;99.90;;;17.84;100.00;97260.94;5038988;28;20106;-40
2023/08/18 01:52:48;;;;;;;4.28;3.22;;;17.90;99.90;;;17.80;100.00;97262.97;5043236;28;20025;-40
2023/08/18 01:55:14;;;;;;;9.20;4.53;;;17.90;99.90;;;17.80;100.00;97264.75;5040022;28;20029;-39
2023/08/18 01:57:40;;;;;;;5.65;3.40;;;17.90;99.90;;;17.74;100.00;97258.88;5038330;28;20051;-40
2023/08/18 02:00:06;;;;;;;5.05;3.83;;;17.80;99.90;;;17.72;100.00;97258.13;5041104;28;20669;-39
2023/08/18 02:02:32;;;;;;;5.57;3.85;;;17.80;99.90;;;17.62;100.00;97251.75;5039524;28;20511;-40
2023/08/18 02:04:58;;;;;;;5.13;3.65;;;17.80;99.90;;;17.66;100.00;97261.22;5038729;28;20037;-41
2023/08/18 02:07:23;;;;;;;4.35;3.70;;;17.80;99.90;;;17.64;100.00;97257.81;5037780;28;20037;-41
2023/08/18 02:09:49;;;;;;;4.40;3.67;;;17.80;99.90;;;17.66;100.00;97263.91;5038750;28;20070;-39
2023/08/18 02:12:15;;;;;;;6.93;4.13;;;17.80;99.90;;;17.66;100.00;97250.56;5041623;28;20268;-41
2023/08/18 02:14:40;;;;;;;5.82;3.58;;;17.80;99.90;;;17.67;100.00;97251.41;5039396;28;20037;-41
2023/08/18 02:17:06;;;;;;;7.05;3.80;;;17.80;99.90;;;17.66;100.00;97253.25;5038127;28;20029;-39
2023/08/18 02:19:32;;;;;;;4.68;3.60;;;17.80;99.90;;;17.66;100.00;97249.72;5033125;28;20024;-40
2023/08/18 02:21:57;;;;;;;4.90;3.40;;;17.80;99.90;;;17.66;100.00;97245.22;5034341;28;20044;-40
2023/08/18 02:24:23;;;;;;;4.60;3.35;;;17.80;99.90;;;17.64;100.00;97240.94;5025973;28;20587;-39
2023/08/18 02:26:49;;;;;;;7.15;3.13;;;17.70;99.90;;;17.62;100.00;97242.88;5031671;28;20033;-41
2023/08/18 02:29:14;;;;;;;4.40;3.50;;;17.70;99.90;;;17.61;100.00;97243.84;5033119;28;20041;-42
2023/08/18 02:31:40;;;;;;;3.80;3.00;;;17.70;99.90;;;17.58;100.00;97238.72;5033136;28;20036;-39
2023/08/18 02:34:06;;;;;;;5.28;2.97;;;17.70;99.90;;;17.52;100.00;97240.84;5034413;28;20029;-39
2023/08/18 02:36:31;;;;;;;5.53;3.35;;;17.70;99.90;;;17.56;100.00;97245.00;5035189;28;20045;-40
2023/08/18 02:38:57;;;;;;;5.78;3.63;;;17.70;99.90;;;17.55;100.00;97247.78;5032779;28;20055;-39
2023/08/18 02:41:24;;;;;;;4.85;3.13;;;17.70;99.90;;;17.53;100.00;97250.56;5033637;28;20040;-39
2023/08/18 02:43:49;;;;;;;6.88;2.95;;;17.60;99.90;;;17.51;100.00;97240.94;5034181;28;20033;-40
2023/08/18 02:46:16;;;;;;;4.63;3.25;;;17.60;99.90;;;17.51;100.00;97248.94;5033433;28;20459;-40
2023/08/18 02:48:41;;;;;;;5.15;3.00;;;17.60;99.90;;;17.50;100.00;97241.91;5036608;28;20052;-39
2023/08/18 02:51:09;;;;;;;3.40;2.80;;;17.60;99.90;;;17.46;100.00;97238.59;5034447;28;20263;-39
2023/08/18 02:53:38;;;;;;;5.07;3.13;;;17.60;99.90;;;17.44;100.00;97234.31;5038088;28;20033;-40
2023/08/18 02:56:05;;;;;;;4.72;2.88;;;17.50;99.90;;;17.41;100.00;97229.16;5037062;28;20025;-40
2023/08/18 02:58:32;;;;;;;4.47;3.30;;;17.50;99.90;;;17.37;100.00;97233.84;5037977;28;20512;-39
2023/08/18 03:01:06;;;;;;;5.20;3.40;;;17.50;99.90;;;17.33;100.00;97238.53;5036344;28;20405;-39
2023/08/18 03:03:32;;;;;;;4.07;3.00;;;17.40;99.90;;;17.28;100.00;97223.81;5030959;28;20124;-40
2023/08/18 03:06:04;;;;;;;4.00;3.10;;;17.40;99.90;;;17.23;100.00;97229.47;5037435;28;20144;-40
2023/08/18 03:08:29;;;;;;;5.00;3.03;;;17.30;99.90;;;17.20;100.00;97231.47;5033867;28;20029;-40
2023/08/18 03:10:57;;;;;;;3.55;2.80;;;17.30;99.90;;;17.16;100.00;97221.00;5038245;28;20386;-40
2023/08/18 03:13:23;;;;;;;3.97;3.08;;;17.30;99.90;;;17.14;100.00;97222.94;5036114;28;20439;-40
2023/08/18 03:15:49;;;;;;;3.97;2.90;;;17.30;99.90;;;17.12;100.00;97210.66;5032304;28;20040;-39
2023/08/18 03:18:15;;;;;;;4.95;3.17;;;17.20;99.90;;;17.09;100.00;97208.22;5036541;28;20402;-39
2023/08/18 03:20:41;;;;;;;6.50;3.63;;;17.20;99.90;;;17.06;100.00;97200.41;5041597;28;20033;-39
2023/08/18 03:23:07;;;;;;;7.47;3.53;;;17.20;99.90;;;17.06;100.00;97211.06;5038070;28;20037;-39
2023/08/18 03:25:33;;;;;;;3.42;2.83;;;17.20;99.90;;;17.06;100.00;97203.09;5034688;28;20638;-40
2023/08/18 03:27:58;;;;;;;4.85;3.17;;;17.20;99.90;;;17.03;100.00;97208.59;5039195;28;20071;-40
2023/08/18 03:30:24;;;;;;;4.20;3.33;;;17.20;99.90;;;17.00;100.00;97206.16;5039266;28;20044;-40
2023/08/18 03:32:52;;;;;;;5.13;3.00;;;17.20;99.90;;;17.02;100.00;97214.91;5041648;28;20393;-39
2023/08/18 03:35:17;;;;;;;7.05;3.30;;;17.10;99.90;;;16.97;100.00;97208.03;5042369;28;20535;-40
2023/08/18 03:37:43;;;;;;;6.55;3.63;;;17.10;99.90;;;16.92;100.00;97207.53;5039483;28;20087;-40
2023/08/18 03:40:09;;;;;;;3.63;3.00;;;17.10;99.90;;;16.88;100.00;97213.13;5039720;28;20036;-40
2023/08/18 03:42:35;;;;;;;5.32;3.47;;;17.00;99.90;;;16.85;100.00;97210.66;5043660;28;20037;-39
2023/08/18 03:45:01;;;;;;;3.58;3.28;;;17.00;99.90;;;16.81;100.00;97209.97;5041851;28;20099;-39
2023/08/18 03:47:27;;;;;;;4.88;3.47;;;17.00;99.90;;;16.78;100.00;97219.03;5036273;28;20464;-39
2023/08/18 03:49:52;;;;;;;4.97;3.50;;;16.90;99.90;;;16.81;100.00;97212.66;5033493;28;20044;-39
2023/08/18 03:52:18;;;;;;;6.97;3.67;;;16.90;99.90;;;16.80;100.00;97209.13;5037160;28;20025;-40
2023/08/18 03:54:44;;;;;;;4.82;3.45;;;16.90;99.90;;;16.83;100.00;97221.41;5038114;28;20037;-39
2023/08/18 03:57:10;;;;;;;8.48;4.25;;;16.90;99.90;;;16.82;100.00;97214.38;5039997;28;20025;-39
2023/08/18 03:59:36;;;;;;;6.63;3.80;;;17.00;99.90;;;16.80;100.00;97211.78;5039748;28;20025;-40
2023/08/18 04:02:01;;;;;;;4.32;3.45;;;16.90;99.90;;;16.78;100.00;97213.72;5041101;28;20041;-40
2023/08/18 04:04:27;;;;;;;4.78;3.40;;;16.90;99.90;;;16.78;100.00;97215.53;5042607;28;20029;-39
2023/08/18 04:06:53;;;;;;;6.10;3.67;;;16.90;99.90;;;16.77;100.00;97213.81;5041366;28;20095;-39
2023/08/18 04:09:18;;;;;;;9.38;3.88;;;16.90;99.90;;;16.77;100.00;97216.47;5037205;28;20029;-39
2023/08/18 04:11:45;;;;;;;7.07;4.15;;;16.90;99.90;;;16.69;100.00;97201.00;5037723;28;20504;-39
2023/08/18 04:14:11;;;;;;;3.88;3.47;;;16.90;99.90;;;16.74;100.00;97209.53;5044026;28;20063;-39
2023/08/18 04:16:37;;;;;;;6.13;3.67;;;16.90;99.90;;;16.74;100.00;97214.88;5034268;28;20033;-39
2023/08/18 04:19:06;;;;;;;7.18;3.63;;;16.90;99.90;;;16.71;100.00;97214.22;5038379;28;20029;-40
2023/08/18 04:21:32;;;;;;;4.32;3.40;;;16.80;99.90;;;16.64;100.00;97212.91;5034293;28;20128;-39
2023/08/18 04:23:57;;;;;;;5.13;3.75;;;16.80;99.90;;;16.65;100.00;97215.44;5034030;28;20048;-39
2023/08/18 04:26:23;;;;;;;7.22;3.83;;;16.80;99.90;;;16.64;100.00;97216.41;5035579;28;20034;-39
2023/08/18 04:28:49;;;;;;;4.57;3.38;;;16.80;99.90;;;16.62;100.00;97207.66;5044984;28;20037;-40
2023/08/18 04:31:15;;;;;;;5.07;3.90;;;16.70;99.90;;;16.63;100.00;97217.34;5040834;28;20025;-39
2023/08/18 04:33:40;;;;;;;5.55;3.72;;;16.80;99.90;;;16.62;100.00;97220.97;5041679;28;20033;-39
2023/08/18 04:36:06;;;;;;;5.50;3.63;;;16.70;99.90;;;16.60;100.00;97222.91;5045807;28;20043;-39
2023/08/18 04:38:32;;;;;;;5.50;3.50;;;16.80;99.90;;;16.64;100.00;97223.56;5035749;28;20044;-40
2023/08/18 04:40:59;;;;;;;6.88;3.72;;;16.70;99.90;;;16.66;100.00;97226.97;5038716;28;20072;-39
2023/08/18 04:43:27;;;;;;;4.50;3.47;;;16.80;99.90;;;16.67;100.00;97229.53;5038366;28;20492;-40
2023/08/18 04:45:53;;;;;;;6.47;3.83;;;16.70;99.90;;;16.65;100.00;97225.25;5043341;28;20024;-39
2023/08/18 04:48:20;;;;;;;4.57;3.20;;;16.70;99.90;;;16.68;100.00;97233.88;5036202;28;20374;-38
2023/08/18 04:50:46;;;;;;;7.43;3.95;;;16.80;99.90;;;16.71;100.00;97239.03;5039332;28;20029;-40
2023/08/18 04:53:11;;;;;;;4.88;3.70;;;16.80;99.90;;;16.73;100.00;97239.78;5039564;28;20051;-38
2023/08/18 04:55:37;;;;;;;7.82;3.67;;;16.90;99.90;;;16.77;100.00;97237.78;5043458;28;20493;-39
2023/08/18 04:58:03;;;;;;;5.07;3.58;;;16.90;99.90;;;16.81;100.00;97236.63;5039327;28;20033;-39
2023/08/18 05:00:29;;;;;;;4.28;3.70;;;16.90;99.90;;;16.86;100.00;97237.19;5036715;28;20523;-39
2023/08/18 05:02:55;;;;;;;5.78;3.30;;;17.00;99.90;;;16.89;100.00;97234.34;5038359;28;20116;-39
2023/08/18 05:05:21;;;;;;;5.85;3.70;;;17.00;99.90;;;16.95;100.00;97236.59;5039680;28;20396;-39
2023/08/18 05:07:47;;;;;;;5.20;3.25;;;17.10;99.90;;;17.03;100.00;97241.44;5035135;28;20036;-40
2023/08/18 05:10:13;;;;;;;6.90;3.55;;;17.10;99.90;;;17.08;100.00;97249.13;5033588;28;20451;-39
2023/08/18 05:12:38;;;;;;;8.52;3.85;;;17.20;99.90;;;17.14;100.00;97252.25;5036978;28;20034;-41
2023/08/18 05:15:05;;;;;;;3.97;3.22;;;17.20;99.90;;;17.20;100.00;97250.97;5036729;28;20163;-41
2023/08/18 05:17:31;;;;;;;3.88;3.22;;;17.30;99.90;;;17.23;100.00;97241.91;5031339;28;20485;-41
2023/08/18 05:19:56;;;;;;;5.05;3.25;;;17.30;99.90;;;17.29;100.00;97253.03;5034867;28;20036;-39
2023/08/18 05:22:22;;;;;;;5.60;3.53;;;17.40;99.90;;;17.38;100.00;97243.56;5032234;28;20043;-40
2023/08/18 05:24:52;;;;;;;4.93;3.53;;;17.50;99.90;;;17.48;100.00;97249.13;5032497;28;20115;-41
2023/08/18 05:27:17;;;;;;;4.32;3.47;;;17.50;99.90;;;17.57;100.00;97251.19;5024992;28;20481;-40
2023/08/18 05:29:43;;;;;;;5.55;3.83;;;17.60;99.90;;;17.66;100.00;97249.72;5042997;28;20102;-40
2023/08/18 05:32:09;;;;;;;4.38;3.45;;;17.70;99.90;;;17.74;100.00;97248.22;5062939;28;20135;-41
2023/08/18 05:34:35;;;;;;;4.00;3.28;;;17.80;99.90;;;17.75;100.00;97239.28;5049619;28;20400;-41
2023/08/18 05:37:01;;;;;;;5.80;3.70;;;17.90;99.90;;;17.91;100.00;97255.09;5053893;28;20021;-40
2023/08/18 05:39:27;;;;;;;4.80;3.35;;;18.00;99.90;;;17.99;100.00;97256.41;5052225;28;20051;-41
2023/08/18 05:41:53;;;;;;;6.55;3.72;;;18.10;99.90;;;18.02;100.00;97254.38;5047976;28;20047;-42
2023/08/18 05:44:18;;;;;;;4.70;3.38;;;18.20;99.90;;;18.10;100.00;97249.34;5051878;28;20025;-43
2023/08/18 05:46:44;;;;;;;9.25;3.42;;;18.20;99.90;;;18.18;100.00;97247.94;5044955;28;20163;-41
2023/08/18 05:49:10;;;;;;;3.97;2.95;;;18.30;99.90;;;18.29;100.00;97258.75;5056591;28;20033;-41
2023/08/18 05:51:36;;;;;;;5.78;3.17;;;18.40;99.90;;;18.35;100.00;97254.78;5056460;28;20477;-40
2023/08/18 05:54:03;;;;;;;5.30;3.20;;;18.50;99.90;;;18.46;100.00;97254.88;5049160;28;20030;-41
2023/08/18 05:56:29;;;;;;;4.90;3.45;;;18.50;99.90;;;18.51;100.00;97250.91;5062522;28;20025;-40
2023/08/18 05:58:55;;;;;;;6.38;3.40;;;18.60;99.90;;;18.59;100.00;97257.50;5050445;28;20024;-40
2023/08/18 06:01:20;;;;;;;4.97;3.22;;;18.70;99.90;;;18.67;100.00;97268.50;5049015;28;20055;-39
2023/08/18 06:03:46;;;;;;;4.75;3.20;;;18.80;99.90;;;18.72;100.00;97268.16;5054705;28;20041;-42
2023/08/18 06:08:41;;;;;;;3.67;3.30;;;18.90;99.90;;;18.91;100.00;97265.91;5040074;28;20519;-37
2023/08/18 06:11:07;;;;;;;5.72;3.35;;;19.00;99.90;;;18.95;100.00;97262.06;5038224;28;20037;-37
2023/08/18 06:13:33;;;;;;;6.40;3.78;;;19.10;99.90;;;19.06;100.00;97267.47;5039774;28;20052;-37
2023/08/18 06:16:03;;;;;;;5.05;3.15;;;19.20;99.90;;;19.13;100.00;97273.22;5037363;28;20021;-37
2023/08/18 06:18:29;;;;;;;6.07;3.50;;;19.30;99.90;;;19.13;100.00;97272.34;5040795;28;20033;-37
2023/08/18 06:20:55;;;;;;;3.78;3.08;;;19.30;99.90;;;19.21;100.00;97275.31;5038270;28;20724;-37
2023/08/18 06:23:20;;;;;;;6.35;3.17;;;19.30;99.90;;;19.23;100.00;97281.38;5041387;28;20033;-37
2023/08/18 06:25:46;;;;;;;8.23;3.70;;;19.40;99.90;;;19.22;100.00;97275.19;5038347;28;20032;-37
2023/08/18 06:28:12;;;;;;;4.35;3.30;;;19.40;99.90;;;19.23;100.00;97284.06;5033046;28;20029;-37
2023/08/18 06:30:37;;;;;;;5.25;3.58;;;19.40;99.90;;;19.33;100.00;97281.56;5035175;28;20075;-37
2023/08/18 06:33:03;;;;;;;5.63;3.00;;;19.40;99.90;;;19.41;100.00;97280.00;5034721;28;20037;-37
2023/08/18 06:35:29;;;;;;;6.38;3.42;;;19.50;99.90;;;19.45;100.00;97272.63;5041373;28;20119;-37
2023/08/18 06:37:55;;;;;;;5.25;3.30;;;19.60;99.90;;;19.62;100.00;97288.25;5037212;28;20036;-37
2023/08/18 06:40:20;;;;;;;6.38;3.58;;;19.80;99.90;;;19.70;100.00;97289.50;5039671;28;20083;-37
2023/08/18 06:42:46;;;;;;;5.22;3.20;;;19.80;99.90;;;19.74;100.00;97282.97;5037941;28;20040;-37
2023/08/18 06:45:12;;;;;;;4.90;3.15;;;19.90;99.90;;;19.87;100.00;97302.50;5036015;28;20029;-37
2023/08/18 06:47:37;;;;;;;5.03;3.65;;;20.00;99.90;;;19.94;100.00;97300.22;5043149;28;20045;-38
2023/08/18 06:50:05;;;;;;;6.90;3.95;;;20.00;99.90;;;20.04;100.00;97301.19;5038534;28;20420;-37
2023/08/18 06:52:33;;;;;;;4.35;3.35;;;20.20;99.90;;;20.17;100.00;97301.94;5040346;28;20037;-37
2023/08/18 06:54:59;;;;;;;4.55;3.05;;;20.30;99.90;;;20.26;100.00;97294.16;5042873;28;20051;-37
2023/08/18 06:57:25;;;;;;;6.63;3.47;;;20.40;99.90;;;20.35;100.00;97301.47;5045266;28;20724;-37
2023/08/18 06:59:51;;;;;;;5.72;3.30;;;20.50;99.90;;;20.45;100.00;97298.94;5045630;28;20495;-37
2023/08/18 07:02:17;;;;;;;6.55;3.38;;;20.50;99.90;;;20.56;100.00;97301.63;5046298;28;20123;-37
2023/08/18 07:04:43;;;;;;;6.15;3.92;;;20.60;99.90;;;20.66;100.00;97305.31;5041081;28;20029;-38
2023/08/18 07:07:09;;;;;;;4.50;3.08;;;20.80;99.90;;;20.82;100.00;97304.06;5042593;28;20716;-37
2023/08/18 07:09:34;;;;;;;4.15;3.15;;;20.90;99.90;;;20.98;100.00;97299.22;5041688;28;20060;-37
2023/08/18 07:12:00;;;;;;;6.63;3.03;;;21.00;99.90;;;21.14;100.00;97302.34;5042887;28;20350;-37
2023/08/18 07:14:26;;;;;;;7.60;3.10;;;21.20;99.90;;;21.30;100.00;97301.06;5045338;28;20040;-37
2023/08/18 07:16:51;;;;;;;7.20;3.15;;;21.30;99.90;;;21.46;100.00;97309.63;5043630;28;20389;-37
2023/08/18 07:19:17;;;;;;;6.28;3.20;;;21.40;99.90;;;21.60;100.00;97304.91;5045853;28;20040;-35
2023/08/18 07:21:43;;;;;;;7.05;3.20;;;21.60;99.90;;;21.72;100.00;97302.06;5046344;28;20472;-35
2023/08/18 07:24:08;;;;;;;4.82;3.15;;;21.70;99.90;;;21.83;100.00;97295.78;5048222;28;20024;-36
2023/08/18 07:26:34;;;;;;;8.95;3.85;;;21.80;99.90;;;21.92;100.00;97295.00;5044191;28;20040;-36
2023/08/18 07:29:00;;;;;;;5.25;2.85;;;21.90;99.90;;;22.03;100.00;97301.28;5039944;28;20503;-36
2023/08/18 07:31:25;;;;;;;4.40;3.10;;;22.00;99.90;;;22.11;100.00;97301.50;5045863;28;20029;-36
2023/08/18 07:33:52;;;;;;;7.68;3.10;;;22.10;99.90;;;22.16;100.00;97299.25;5047601;28;20040;-36
2023/08/18 07:36:18;;;;;;;4.03;2.70;;;22.20;99.90;;;22.24;100.00;97307.50;5041164;28;20342;-36
2023/08/18 07:38:44;;;;;;;3.65;2.55;;;22.20;99.90;;;22.33;100.00;97311.28;5044121;28;20033;-36
2023/08/18 07:41:09;;;;;;;5.70;2.70;;;22.30;99.90;;;22.43;100.00;97305.94;5044390;28;20378;-36
2023/08/18 07:43:35;;;;;;;4.07;2.75;;;22.40;99.90;;;22.60;100.00;97307.19;5045519;28;20033;-36
2023/08/18 07:46:01;;;;;;;4.03;2.75;;;22.50;99.90;;;22.77;100.00;97322.66;5044865;28;20025;-36
2023/08/18 07:48:26;;;;;;;4.60;3.05;;;22.70;99.90;;;22.89;100.00;97320.75;5049951;28;20056;-36
2023/08/18 07:50:52;;;;;;;6.88;3.47;;;22.80;99.90;;;23.03;100.00;97322.22;5045853;28;20393;-36
2023/08/18 07:53:18;;;;;;;4.18;2.40;;;22.90;99.90;;;23.11;100.00;97314.31;5044829;28;20033;-36
2023/08/18 07:55:44;;;;;;;6.90;2.80;;;23.00;99.90;;;23.28;100.00;97326.28;5042035;28;20499;-36
2023/08/18 07:58:09;;;;;;;5.13;2.95;;;23.10;99.90;;;23.41;100.00;97331.41;5042557;28;20492;-36
2023/08/18 08:00:35;;;;;;;4.38;2.72;;;23.20;99.90;;;23.52;100.00;97327.72;5040232;28;20484;-36
2023/08/18 08:03:01;;;;;;;4.38;2.70;;;23.30;99.90;;;23.57;93.72;97320.09;5040655;28;20067;-36
2023/08/18 08:05:27;;;;;;;6.85;2.60;;;23.30;99.90;;;23.68;94.68;97319.09;5041344;28;20056;-36
2023/08/18 08:07:53;;;;;;;3.47;2.33;;;23.40;99.90;;;23.81;94.18;97320.56;5052149;28;20390;-36
2023/08/18 08:10:18;;;;;;;5.43;2.72;;;23.50;99.90;;;23.85;91.72;97315.75;5037183;28;20639;-36
2023/08/18 08:12:45;;;;;;;4.88;2.63;;;23.60;99.90;;;23.86;92.92;97313.91;5043655;28;20052;-36
2023/08/18 08:15:15;;;;;;;3.10;2.30;;;23.60;99.90;;;24.03;92.85;97310.50;5041308;28;20029;-36
2023/08/18 08:17:41;;;;;;;3.38;2.47;;;23.70;99.90;;;24.15;91.47;97316.56;5046084;28;20493;-36
2023/08/18 08:20:14;;;;;;;3.85;2.13;;;23.90;99.90;;;24.19;90.43;97323.34;5037758;28;20115;-36
2023/08/18 08:22:40;;;;;;;5.78;2.53;;;24.00;99.90;;;24.24;85.31;97323.78;5045519;28;20086;-36
2023/08/18 08:25:06;;;;;;;3.97;2.33;;;24.10;99.90;;;24.29;86.98;97316.13;5036467;28;20041;-36
2023/08/18 08:27:31;;;;;;;4.68;2.20;;;24.20;99.90;;;24.37;86.01;97328.84;5041940;28;20549;-37
2023/08/18 08:29:57;;;;;;;3.58;2.17;;;24.30;99.90;;;24.39;81.61;97318.81;5031699;28;20037;-36
2023/08/18 08:32:23;;;;;;;3.95;2.35;;;24.30;99.90;;;24.34;80.16;97302.22;5036698;28;20060;-36
2023/08/18 08:34:50;;;;;;;3.53;2.00;;;24.30;99.90;;;24.50;77.44;97318.63;5043598;28;20104;-36
2023/08/18 08:37:19;;;;;;;5.35;2.00;;;24.40;99.90;;;24.51;73.19;97319.47;5041809;28;20025;-36
2023/08/18 08:39:45;;;;;;;4.20;1.75;;;24.50;99.90;;;24.51;73.59;97308.69;5040298;28;20033;-38
2023/08/18 08:42:11;;;;;;;3.92;2.35;;;24.40;99.90;;;24.53;73.56;97309.41;5038428;28;20051;-36
2023/08/18 08:44:37;;;;;;;3.35;1.88;;;24.50;99.90;;;24.48;77.08;97293.66;5042486;28;20033;-36
2023/08/18 08:47:03;;;;;;;3.72;1.95;;;24.50;99.90;;;24.67;72.98;97311.63;5047027;28;20052;-36
2023/08/18 08:49:30;;;;;;;2.95;2.00;;;24.60;99.90;;;24.77;71.08;97314.31;5046052;28;20032;-37
2023/08/18 08:52:07;;;;;;;4.30;2.08;;;24.70;99.90;;;24.86;73.46;97318.81;5040876;28;20421;-38
2023/08/18 08:54:39;;;;;;;4.03;2.00;;;24.80;99.90;;;24.91;69.60;97318.38;5041765;28;20429;-38
2023/08/18 08:57:07;;;;;;;;;;;24.80;99.90;;;24.98;70.28;97310.53;5037475;28;20031;-37
2023/08/18 08:59:33;;;;;;;3.58;1.95;;;24.90;99.90;;;25.03;67.63;97316.31;5053275;28;20590;-37
2023/08/18 09:01:59;;;;;;;2.72;2.10;;;24.90;99.90;;;25.07;66.15;97310.50;5028147;28;20495;-37
2023/08/18 09:04:25;;;;;;;4.80;2.03;;;25.00;99.90;;;25.08;64.40;97311.34;5030414;28;20607;-37
2023/08/18 09:06:51;;;;;;;2.00;1.70;;;25.00;99.90;;;25.11;64.12;97305.66;5037037;28;20114;-39
2023/08/18 09:09:18;;;;;;;3.88;1.90;;;25.00;99.90;;;25.17;69.33;97301.50;5033333;28;20032;-39
2023/08/18 09:11:46;;;;;;;5.22;1.77;;;25.10;99.90;;;25.27;64.07;97308.56;5039784;28;20029;-39
2023/08/18 09:14:16;;;;;;;2.45;1.77;;;25.20;99.90;;;25.22;62.56;97288.41;5037315;28;20033;-38
2023/08/18 09:16:46;;;;;;;5.25;1.88;;;25.20;99.90;;;25.38;61.42;97312.91;5032921;28;20048;-39
2023/08/18 09:19:13;;;;;;;3.30;1.80;;;25.30;99.90;;;25.46;61.15;97309.44;5039599;28;20040;-39
2023/08/18 09:21:40;;;;;;;1.73;1.50;;;25.40;99.90;;;25.59;61.80;97309.06;5038174;28;20341;-39
2023/08/18 09:24:09;;;;;;;3.55;2.00;;;25.50;99.90;;;25.68;57.92;97311.69;5039937;28;20067;-40
2023/08/18 09:26:35;;;;;;;2.30;1.75;;;25.60;99.90;;;25.76;61.31;97316.31;5034937;28;20037;-38
2023/08/18 09:29:02;;;;;;;2.70;1.90;;;25.70;99.90;;;25.84;60.75;97319.09;5036029;28;20098;-41
2023/08/18 09:31:29;;;;;;;2.72;2.00;;;25.70;99.90;;;25.87;56.79;97313.38;5042229;28;20400;-38
2023/08/18 09:33:55;;;;;;;2.78;1.73;;;25.80;99.90;;;25.97;59.25;97304.38;5040633;28;20468;-39
2023/08/18 09:36:21;;;;;;;3.08;1.70;;;25.90;99.90;;;26.07;59.40;97307.84;5039573;28;20096;-39
2023/08/18 09:38:46;;;;;;;3.08;1.88;;;26.00;99.90;;;26.17;58.58;97305.06;5044065;28;20032;-39
2023/08/18 09:41:13;;;;;;;3.35;1.50;;;26.10;99.90;;;26.26;56.79;97310.34;5039381;28;20036;-38
2023/08/18 09:43:41;;;;;;;6.28;1.70;;;26.10;99.90;;;26.39;59.18;97304.53;5041312;28;20017;-38
2023/08/18 09:46:10;;;;;;;3.00;1.65;;;26.20;99.90;;;26.50;56.47;97297.16;5041348;28;20025;-38
2023/08/18 09:48:38;;;;;;;3.25;1.80;;;26.40;99.90;;;26.62;55.46;97304.03;5039226;28;20029;-40
2023/08/18 09:51:08;;;;;;;2.70;1.65;;;26.50;99.90;;;26.70;54.76;97298.66;5035574;28;20039;-38
2023/08/18 09:53:34;;;;;;;4.40;1.67;;;26.50;99.90;;;26.75;52.66;97296.31;5034563;28;20094;-39
2023/08/18 09:56:10;;;;;;;2.72;1.63;;;26.60;99.90;;;26.78;56.00;97292.47;5038385;28;20029;-38
2023/08/18 09:58:47;;;;;;;2.88;1.50;;;26.70;99.90;;;26.80;52.86;97299.41;5028813;28;20078;-39
2023/08/18 10:01:15;;;;;;;3.47;1.70;;;26.70;99.90;;;26.85;52.18;97296.22;5033901;28;20025;-39
2023/08/18 10:03:42;;;;;;;4.25;1.60;;;26.80;99.90;;;26.89;54.02;97285.91;5040907;28;20024;-38
2023/08/18 10:06:08;;;;;;;2.45;1.58;;;26.70;99.90;;;26.90;52.42;97298.41;5039714;28;20390;-38
2023/08/18 10:08:35;;;;;;;4.15;1.58;;;26.80;99.90;;;26.91;50.59;97289.31;5034853;28;20032;-39
2023/08/18 10:11:01;;;;;;;4.35;1.60;;;26.80;99.90;;;26.97;51.77;97297.63;5034908;28;20582;-38
2023/08/18 10:13:31;;;;;;;2.55;1.65;;;26.90;99.90;;;27.04;50.34;97301.38;5027738;28;20028;-41
2023/08/18 10:15:57;;;;;;;2.30;1.63;;;26.90;99.90;;;27.02;52.99;97280.88;5031444;28;20489;-39